sensor_id;sensor_type;location;lat;lon;timestamp;P1;durP1;ratioP1;P2;durP2;ratioP2
17414;SDS011;8825;48.086;16.426;2023-04-15T00:05:23;0.80;;;0.80;;
17414;SDS011;8825;48.086;16.426;2023-04-15T00:07:51;0.80;;;0.80;;
17414;SDS011;8825;48.086;16.426;2023-04-15T00:13:40;0.70;;;0.70;;
17414;SDS011;8825;48.086;16.426;2023-04-15T00:19:30;0.82;;;0.82;;
17414;SDS011;8825;48.086;16.426;2023-04-15T00:25:21;0.70;;;0.70;;
17414;SDS011;8825;48.086;16.426;2023-04-15T00:27:54;1.00;;;1.00;;
17414;SDS011;8825;48.086;16.426;2023-04-15T00:33:47;0.90;;;0.90;;
17414;SDS011;8825;48.086;16.426;2023-04-15T00:39:39;0.90;;;0.90;;
17414;SDS011;8825;48.086;16.426;2023-04-15T00:45:29;1.70;;;0.88;;
17414;SDS011;8825;48.086;16.426;2023-04-15T00:47:58;0.88;;;0.88;;
17414;SDS011;8825;48.086;16.426;2023-04-15T00:53:48;0.80;;;0.80;;
17414;SDS011;8825;48.086;16.426;2023-04-15T00:59:38;0.80;;;0.80;;
17414;SDS011;8825;48.086;16.426;2023-04-15T01:05:28;0.82;;;0.82;;
17414;SDS011;8825;48.086;16.426;2023-04-15T01:07:56;0.80;;;0.80;;
17414;SDS011;8825;48.086;16.426;2023-04-15T01:10:25;0.80;;;0.80;;
17414;SDS011;8825;48.086;16.426;2023-04-15T01:12:53;0.80;;;0.80;;
17414;SDS011;8825;48.086;16.426;2023-04-15T01:15:21;0.80;;;0.80;;
17414;SDS011;8825;48.086;16.426;2023-04-15T01:17:49;0.80;;;0.80;;
17414;SDS011;8825;48.086;16.426;2023-04-15T01:20:17;0.80;;;0.80;;
17414;SDS011;8825;48.086;16.426;2023-04-15T01:22:45;0.80;;;0.80;;
17414;SDS011;8825;48.086;16.426;2023-04-15T01:25:17;0.80;;;0.80;;
17414;SDS011;8825;48.086;16.426;2023-04-15T01:27:44;0.80;;;0.80;;
17414;SDS011;8825;48.086;16.426;2023-04-15T01:30:12;0.90;;;0.90;;
17414;SDS011;8825;48.086;16.426;2023-04-15T01:32:40;0.80;;;0.80;;
17414;SDS011;8825;48.086;16.426;2023-04-15T01:35:08;0.90;;;0.80;;
17414;SDS011;8825;48.086;16.426;2023-04-15T01:40:58;1.00;;;0.90;;
17414;SDS011;8825;48.086;16.426;2023-04-15T01:43:26;1.20;;;1.00;;
17414;SDS011;8825;48.086;16.426;2023-04-15T01:45:54;1.30;;;1.20;;
17414;SDS011;8825;48.086;16.426;2023-04-15T01:51:44;0.87;;;0.87;;
17414;SDS011;8825;48.086;16.426;2023-04-15T01:54:12;1.13;;;1.03;;
17414;SDS011;8825;48.086;16.426;2023-04-15T02:00:02;0.90;;;0.90;;
17414;SDS011;8825;48.086;16.426;2023-04-15T02:05:54;0.83;;;0.83;;
17414;SDS011;8825;48.086;16.426;2023-04-15T02:08:22;0.80;;;0.80;;
17414;SDS011;8825;48.086;16.426;2023-04-15T02:14:12;0.90;;;0.90;;
17414;SDS011;8825;48.086;16.426;2023-04-15T02:20:02;0.80;;;0.80;;
17414;SDS011;8825;48.086;16.426;2023-04-15T02:22:36;0.80;;;0.80;;
17414;SDS011;8825;48.086;16.426;2023-04-15T02:25:04;1.00;;;0.90;;
17414;SDS011;8825;48.086;16.426;2023-04-15T02:30:55;1.13;;;1.00;;
17414;SDS011;8825;48.086;16.426;2023-04-15T02:33:24;0.80;;;0.80;;
17414;SDS011;8825;48.086;16.426;2023-04-15T02:35:52;0.80;;;0.80;;
17414;SDS011;8825;48.086;16.426;2023-04-15T02:41:42;0.90;;;0.90;;
17414;SDS011;8825;48.086;16.426;2023-04-15T02:44:12;0.97;;;0.90;;
17414;SDS011;8825;48.086;16.426;2023-04-15T02:50:02;0.80;;;0.80;;
17414;SDS011;8825;48.086;16.426;2023-04-15T02:55:52;0.80;;;0.80;;
17414;SDS011;8825;48.086;16.426;2023-04-15T03:01:43;0.90;;;0.90;;
17414;SDS011;8825;48.086;16.426;2023-04-15T03:04:10;0.97;;;0.97;;
17414;SDS011;8825;48.086;16.426;2023-04-15T03:06:39;1.10;;;1.00;;
17414;SDS011;8825;48.086;16.426;2023-04-15T03:09:42;1.00;;;1.00;;
17414;SDS011;8825;48.086;16.426;2023-04-15T03:15:32;1.10;;;1.00;;
17414;SDS011;8825;48.086;16.426;2023-04-15T03:21:23;2.13;;;1.07;;
17414;SDS011;8825;48.086;16.426;2023-04-15T03:27:13;2.00;;;0.90;;
17414;SDS011;8825;48.086;16.426;2023-04-15T03:29:41;1.00;;;1.00;;
17414;SDS011;8825;48.086;16.426;2023-04-15T03:35:31;1.20;;;1.10;;
17414;SDS011;8825;48.086;16.426;2023-04-15T03:41:21;1.00;;;1.00;;
17414;SDS011;8825;48.086;16.426;2023-04-15T03:47:11;1.30;;;1.20;;
17414;SDS011;8825;48.086;16.426;2023-04-15T03:49:39;1.60;;;1.50;;
17414;SDS011;8825;48.086;16.426;2023-04-15T03:52:07;2.17;;;1.40;;
17414;SDS011;8825;48.086;16.426;2023-04-15T03:54:35;1.30;;;1.20;;
17414;SDS011;8825;48.086;16.426;2023-04-15T03:57:03;1.03;;;1.03;;
17414;SDS011;8825;48.086;16.426;2023-04-15T03:59:34;1.50;;;1.23;;
17414;SDS011;8825;48.086;16.426;2023-04-15T04:02:02;1.83;;;1.30;;
17414;SDS011;8825;48.086;16.426;2023-04-15T04:04:29;1.40;;;1.30;;
17414;SDS011;8825;48.086;16.426;2023-04-15T04:07:15;1.30;;;1.20;;
17414;SDS011;8825;48.086;16.426;2023-04-15T04:09:43;1.40;;;1.30;;
17414;SDS011;8825;48.086;16.426;2023-04-15T04:12:11;2.03;;;1.50;;
17414;SDS011;8825;48.086;16.426;2023-04-15T04:14:39;1.70;;;1.60;;
17414;SDS011;8825;48.086;16.426;2023-04-15T04:17:07;1.50;;;1.40;;
17414;SDS011;8825;48.086;16.426;2023-04-15T04:19:35;1.43;;;1.33;;
17414;SDS011;8825;48.086;16.426;2023-04-15T04:22:03;1.70;;;1.60;;
17414;SDS011;8825;48.086;16.426;2023-04-15T04:24:31;1.63;;;1.53;;
17414;SDS011;8825;48.086;16.426;2023-04-15T04:26:59;1.50;;;1.40;;
17414;SDS011;8825;48.086;16.426;2023-04-15T04:29:27;1.53;;;1.43;;
17414;SDS011;8825;48.086;16.426;2023-04-15T04:31:54;1.77;;;1.67;;
17414;SDS011;8825;48.086;16.426;2023-04-15T04:34:22;1.67;;;1.57;;
17414;SDS011;8825;48.086;16.426;2023-04-15T04:36:50;1.93;;;1.83;;
17414;SDS011;8825;48.086;16.426;2023-04-15T04:39:18;1.80;;;1.70;;
17414;SDS011;8825;48.086;16.426;2023-04-15T04:41:46;1.60;;;1.50;;
17414;SDS011;8825;48.086;16.426;2023-04-15T04:44:13;1.60;;;1.50;;
17414;SDS011;8825;48.086;16.426;2023-04-15T04:46:41;1.50;;;1.40;;
17414;SDS011;8825;48.086;16.426;2023-04-15T04:52:31;1.90;;;1.80;;
17414;SDS011;8825;48.086;16.426;2023-04-15T04:54:59;2.67;;;2.20;;
17414;SDS011;8825;48.086;16.426;2023-04-15T04:57:27;4.30;;;3.93;;
17414;SDS011;8825;48.086;16.426;2023-04-15T04:59:54;4.50;;;4.10;;
17414;SDS011;8825;48.086;16.426;2023-04-15T05:02:22;3.47;;;3.17;;
17414;SDS011;8825;48.086;16.426;2023-04-15T05:04:51;3.07;;;2.70;;
17414;SDS011;8825;48.086;16.426;2023-04-15T05:07:19;2.03;;;1.83;;
17414;SDS011;8825;48.086;16.426;2023-04-15T05:12:45;1.63;;;1.53;;
17414;SDS011;8825;48.086;16.426;2023-04-15T05:15:13;1.60;;;1.50;;
17414;SDS011;8825;48.086;16.426;2023-04-15T05:17:41;1.80;;;1.70;;
17414;SDS011;8825;48.086;16.426;2023-04-15T05:20:09;1.70;;;1.60;;
17414;SDS011;8825;48.086;16.426;2023-04-15T05:22:38;1.80;;;1.70;;
17414;SDS011;8825;48.086;16.426;2023-04-15T05:28:28;2.00;;;1.90;;
17414;SDS011;8825;48.086;16.426;2023-04-15T05:34:18;2.03;;;1.90;;
17414;SDS011;8825;48.086;16.426;2023-04-15T05:40:08;1.80;;;1.70;;
17414;SDS011;8825;48.086;16.426;2023-04-15T05:42:36;1.60;;;1.50;;
17414;SDS011;8825;48.086;16.426;2023-04-15T05:45:04;1.87;;;1.77;;
17414;SDS011;8825;48.086;16.426;2023-04-15T05:47:34;2.80;;;1.60;;
17414;SDS011;8825;48.086;16.426;2023-04-15T05:50:02;2.00;;;1.90;;
17414;SDS011;8825;48.086;16.426;2023-04-15T05:52:31;1.90;;;1.80;;
17414;SDS011;8825;48.086;16.426;2023-04-15T05:58:21;1.80;;;1.70;;
17414;SDS011;8825;48.086;16.426;2023-04-15T06:04:11;1.90;;;1.80;;
17414;SDS011;8825;48.086;16.426;2023-04-15T06:06:38;2.10;;;1.90;;
17414;SDS011;8825;48.086;16.426;2023-04-15T06:12:05;2.10;;;1.57;;
17414;SDS011;8825;48.086;16.426;2023-04-15T06:17:56;1.60;;;1.50;;
17414;SDS011;8825;48.086;16.426;2023-04-15T06:20:24;1.60;;;1.47;;
17414;SDS011;8825;48.086;16.426;2023-04-15T06:26:14;1.60;;;1.50;;
17414;SDS011;8825;48.086;16.426;2023-04-15T06:32:05;1.60;;;1.50;;
17414;SDS011;8825;48.086;16.426;2023-04-15T06:37:55;1.60;;;1.50;;
17414;SDS011;8825;48.086;16.426;2023-04-15T06:43:45;1.50;;;1.40;;
17414;SDS011;8825;48.086;16.426;2023-04-15T06:46:13;1.40;;;1.30;;
17414;SDS011;8825;48.086;16.426;2023-04-15T06:48:40;1.27;;;1.17;;
17414;SDS011;8825;48.086;16.426;2023-04-15T06:51:09;1.50;;;1.40;;
17414;SDS011;8825;48.086;16.426;2023-04-15T06:53:37;1.53;;;1.43;;
17414;SDS011;8825;48.086;16.426;2023-04-15T06:59:29;1.80;;;1.70;;
17414;SDS011;8825;48.086;16.426;2023-04-15T07:01:57;1.40;;;1.30;;
17414;SDS011;8825;48.086;16.426;2023-04-15T07:07:47;1.60;;;1.50;;
17414;SDS011;8825;48.086;16.426;2023-04-15T07:13:14;1.67;;;1.57;;
17414;SDS011;8825;48.086;16.426;2023-04-15T07:19:04;1.47;;;1.37;;
17414;SDS011;8825;48.086;16.426;2023-04-15T07:21:32;1.47;;;1.37;;
17414;SDS011;8825;48.086;16.426;2023-04-15T07:24:00;1.53;;;1.43;;
17414;SDS011;8825;48.086;16.426;2023-04-15T07:26:28;1.40;;;1.30;;
17414;SDS011;8825;48.086;16.426;2023-04-15T07:28:55;1.50;;;1.40;;
17414;SDS011;8825;48.086;16.426;2023-04-15T07:31:24;1.40;;;1.30;;
17414;SDS011;8825;48.086;16.426;2023-04-15T07:33:52;1.40;;;1.30;;
17414;SDS011;8825;48.086;16.426;2023-04-15T07:36:19;1.40;;;1.30;;
17414;SDS011;8825;48.086;16.426;2023-04-15T07:38:47;1.50;;;1.40;;
17414;SDS011;8825;48.086;16.426;2023-04-15T07:41:15;1.30;;;1.20;;
17414;SDS011;8825;48.086;16.426;2023-04-15T07:43:43;1.00;;;1.00;;
17414;SDS011;8825;48.086;16.426;2023-04-15T07:49:33;1.10;;;1.10;;
17414;SDS011;8825;48.086;16.426;2023-04-15T07:52:01;1.07;;;1.07;;
17414;SDS011;8825;48.086;16.426;2023-04-15T07:57:50;1.27;;;1.17;;
17414;SDS011;8825;48.086;16.426;2023-04-15T08:03:40;1.50;;;1.40;;
17414;SDS011;8825;48.086;16.426;2023-04-15T08:09:30;1.40;;;1.30;;
17414;SDS011;8825;48.086;16.426;2023-04-15T08:11:58;1.50;;;1.40;;
17414;SDS011;8825;48.086;16.426;2023-04-15T08:14:26;2.10;;;1.30;;
17414;SDS011;8825;48.086;16.426;2023-04-15T08:16:55;1.00;;;1.00;;
17414;SDS011;8825;48.086;16.426;2023-04-15T08:19:23;1.00;;;1.00;;
17414;SDS011;8825;48.086;16.426;2023-04-15T08:21:51;1.27;;;1.17;;
17414;SDS011;8825;48.086;16.426;2023-04-15T08:24:18;1.30;;;1.20;;
17414;SDS011;8825;48.086;16.426;2023-04-15T08:26:46;1.40;;;1.30;;
17414;SDS011;8825;48.086;16.426;2023-04-15T08:29:14;1.20;;;1.10;;
17414;SDS011;8825;48.086;16.426;2023-04-15T08:31:42;1.30;;;1.20;;
17414;SDS011;8825;48.086;16.426;2023-04-15T08:34:10;1.40;;;1.30;;
17414;SDS011;8825;48.086;16.426;2023-04-15T08:36:38;1.40;;;1.30;;
17414;SDS011;8825;48.086;16.426;2023-04-15T08:39:06;1.63;;;1.53;;
17414;SDS011;8825;48.086;16.426;2023-04-15T08:41:55;1.40;;;1.30;;
17414;SDS011;8825;48.086;16.426;2023-04-15T08:44:20;1.33;;;1.20;;
17414;SDS011;8825;48.086;16.426;2023-04-15T08:46:51;1.17;;;1.13;;
17414;SDS011;8825;48.086;16.426;2023-04-15T08:49:20;1.10;;;1.10;;
17414;SDS011;8825;48.086;16.426;2023-04-15T08:51:50;1.47;;;1.30;;
17414;SDS011;8825;48.086;16.426;2023-04-15T08:54:18;1.17;;;1.17;;
17414;SDS011;8825;48.086;16.426;2023-04-15T08:56:46;1.33;;;1.23;;
17414;SDS011;8825;48.086;16.426;2023-04-15T08:59:14;0.90;;;0.90;;
17414;SDS011;8825;48.086;16.426;2023-04-15T09:04:31;1.77;;;1.10;;
17414;SDS011;8825;48.086;16.426;2023-04-15T09:06:59;0.90;;;0.90;;
17414;SDS011;8825;48.086;16.426;2023-04-15T09:09:27;1.40;;;1.30;;
17414;SDS011;8825;48.086;16.426;2023-04-15T09:11:55;1.50;;;1.40;;
17414;SDS011;8825;48.086;16.426;2023-04-15T09:14:23;1.50;;;1.40;;
17414;SDS011;8825;48.086;16.426;2023-04-15T09:17:03;1.30;;;1.20;;
17414;SDS011;8825;48.086;16.426;2023-04-15T09:19:31;1.60;;;1.23;;
17414;SDS011;8825;48.086;16.426;2023-04-15T09:21:59;1.53;;;1.20;;
17414;SDS011;8825;48.086;16.426;2023-04-15T09:24:37;1.30;;;1.20;;
17414;SDS011;8825;48.086;16.426;2023-04-15T09:27:07;1.20;;;1.10;;
17414;SDS011;8825;48.086;16.426;2023-04-15T09:29:36;1.30;;;1.20;;
17414;SDS011;8825;48.086;16.426;2023-04-15T09:34:39;1.60;;;1.50;;
17414;SDS011;8825;48.086;16.426;2023-04-15T09:37:07;1.50;;;1.27;;
17414;SDS011;8825;48.086;16.426;2023-04-15T09:39:48;1.60;;;1.40;;
17414;SDS011;8825;48.086;16.426;2023-04-15T09:42:18;1.50;;;1.40;;
17414;SDS011;8825;48.086;16.426;2023-04-15T09:44:47;1.53;;;1.43;;
17414;SDS011;8825;48.086;16.426;2023-04-15T09:47:29;1.40;;;1.30;;
17414;SDS011;8825;48.086;16.426;2023-04-15T09:49:58;1.50;;;1.40;;
17414;SDS011;8825;48.086;16.426;2023-04-15T09:52:28;1.50;;;1.40;;
17414;SDS011;8825;48.086;16.426;2023-04-15T09:54:57;1.27;;;1.17;;
17414;SDS011;8825;48.086;16.426;2023-04-15T09:57:32;1.90;;;1.00;;
17414;SDS011;8825;48.086;16.426;2023-04-15T10:00:04;1.00;;;1.00;;
17414;SDS011;8825;48.086;16.426;2023-04-15T10:02:52;0.93;;;0.93;;
17414;SDS011;8825;48.086;16.426;2023-04-15T10:08:41;0.80;;;0.80;;
17414;SDS011;8825;48.086;16.426;2023-04-15T10:14:22;0.80;;;0.80;;
17414;SDS011;8825;48.086;16.426;2023-04-15T10:20:13;0.70;;;0.70;;
17414;SDS011;8825;48.086;16.426;2023-04-15T10:22:43;0.80;;;0.80;;
17414;SDS011;8825;48.086;16.426;2023-04-15T10:25:12;0.70;;;0.70;;
17414;SDS011;8825;48.086;16.426;2023-04-15T10:27:41;0.70;;;0.70;;
17414;SDS011;8825;48.086;16.426;2023-04-15T10:30:10;1.00;;;0.90;;
17414;SDS011;8825;48.086;16.426;2023-04-15T10:32:38;0.80;;;0.80;;
17414;SDS011;8825;48.086;16.426;2023-04-15T10:35:07;0.70;;;0.70;;
17414;SDS011;8825;48.086;16.426;2023-04-15T10:37:37;0.70;;;0.70;;
17414;SDS011;8825;48.086;16.426;2023-04-15T10:40:24;0.70;;;0.70;;
17414;SDS011;8825;48.086;16.426;2023-04-15T10:42:59;1.37;;;1.00;;
17414;SDS011;8825;48.086;16.426;2023-04-15T10:45:49;1.00;;;1.00;;
17414;SDS011;8825;48.086;16.426;2023-04-15T10:48:33;0.90;;;0.90;;
17414;SDS011;8825;48.086;16.426;2023-04-15T11:00:18;1.10;;;1.10;;
17414;SDS011;8825;48.086;16.426;2023-04-15T11:03:09;0.93;;;0.93;;
17414;SDS011;8825;48.086;16.426;2023-04-15T11:08:53;0.80;;;0.80;;
17414;SDS011;8825;48.086;16.426;2023-04-15T11:14:48;1.43;;;0.90;;
17414;SDS011;8825;48.086;16.426;2023-04-15T11:20:38;0.70;;;0.70;;
17414;SDS011;8825;48.086;16.426;2023-04-15T11:23:07;0.70;;;0.70;;
17414;SDS011;8825;48.086;16.426;2023-04-15T11:25:35;0.70;;;0.70;;
17414;SDS011;8825;48.086;16.426;2023-04-15T11:28:04;0.70;;;0.70;;
17414;SDS011;8825;48.086;16.426;2023-04-15T11:30:34;0.80;;;0.80;;
17414;SDS011;8825;48.086;16.426;2023-04-15T11:33:08;0.80;;;0.80;;
17414;SDS011;8825;48.086;16.426;2023-04-15T11:35:39;0.80;;;0.80;;
17414;SDS011;8825;48.086;16.426;2023-04-15T11:38:08;0.70;;;0.70;;
17414;SDS011;8825;48.086;16.426;2023-04-15T11:40:37;0.70;;;0.70;;
17414;SDS011;8825;48.086;16.426;2023-04-15T11:43:12;0.70;;;0.70;;
17414;SDS011;8825;48.086;16.426;2023-04-15T11:46:02;1.10;;;0.70;;
17414;SDS011;8825;48.086;16.426;2023-04-15T11:48:26;0.70;;;0.70;;
17414;SDS011;8825;48.086;16.426;2023-04-15T11:50:56;0.70;;;0.70;;
17414;SDS011;8825;48.086;16.426;2023-04-15T11:59:40;0.70;;;0.70;;
17414;SDS011;8825;48.086;16.426;2023-04-15T12:05:33;0.70;;;0.70;;
17414;SDS011;8825;48.086;16.426;2023-04-15T12:08:00;0.70;;;0.70;;
17414;SDS011;8825;48.086;16.426;2023-04-15T12:10:30;0.97;;;0.90;;
17414;SDS011;8825;48.086;16.426;2023-04-15T12:12:57;0.77;;;0.77;;
17414;SDS011;8825;48.086;16.426;2023-04-15T12:15:25;0.63;;;0.63;;
17414;SDS011;8825;48.086;16.426;2023-04-15T12:21:15;0.70;;;0.70;;
17414;SDS011;8825;48.086;16.426;2023-04-15T12:27:49;0.70;;;0.70;;
17414;SDS011;8825;48.086;16.426;2023-04-15T12:30:13;0.90;;;0.90;;
17414;SDS011;8825;48.086;16.426;2023-04-15T12:36:03;1.20;;;1.10;;
17414;SDS011;8825;48.086;16.426;2023-04-15T12:38:31;0.77;;;0.77;;
17414;SDS011;8825;48.086;16.426;2023-04-15T12:40:59;0.80;;;0.80;;
17414;SDS011;8825;48.086;16.426;2023-04-15T12:43:27;1.27;;;1.17;;
17414;SDS011;8825;48.086;16.426;2023-04-15T12:45:55;1.00;;;1.00;;
17414;SDS011;8825;48.086;16.426;2023-04-15T12:51:46;0.90;;;0.90;;
17414;SDS011;8825;48.086;16.426;2023-04-15T12:54:18;0.83;;;0.83;;
17414;SDS011;8825;48.086;16.426;2023-04-15T13:00:08;0.80;;;0.80;;
17414;SDS011;8825;48.086;16.426;2023-04-15T13:05:59;0.60;;;0.60;;
17414;SDS011;8825;48.086;16.426;2023-04-15T13:11:50;0.50;;;0.50;;
17414;SDS011;8825;48.086;16.426;2023-04-15T13:14:19;0.63;;;0.63;;
17414;SDS011;8825;48.086;16.426;2023-04-15T13:16:47;0.50;;;0.50;;
17414;SDS011;8825;48.086;16.426;2023-04-15T13:19:14;0.60;;;0.60;;
17414;SDS011;8825;48.086;16.426;2023-04-15T13:21:42;0.60;;;0.60;;
17414;SDS011;8825;48.086;16.426;2023-04-15T13:24:10;0.50;;;0.50;;
17414;SDS011;8825;48.086;16.426;2023-04-15T13:26:38;0.60;;;0.60;;
17414;SDS011;8825;48.086;16.426;2023-04-15T13:29:06;0.50;;;0.50;;
17414;SDS011;8825;48.086;16.426;2023-04-15T13:31:34;0.53;;;0.53;;
17414;SDS011;8825;48.086;16.426;2023-04-15T13:37:27;0.60;;;0.60;;
17414;SDS011;8825;48.086;16.426;2023-04-15T13:39:56;0.60;;;0.60;;
17414;SDS011;8825;48.086;16.426;2023-04-15T13:45:46;0.60;;;0.60;;
17414;SDS011;8825;48.086;16.426;2023-04-15T13:51:36;0.50;;;0.50;;
17414;SDS011;8825;48.086;16.426;2023-04-15T13:57:27;0.40;;;0.40;;
17414;SDS011;8825;48.086;16.426;2023-04-15T13:59:55;0.50;;;0.50;;
17414;SDS011;8825;48.086;16.426;2023-04-15T14:05:46;0.60;;;0.60;;
17414;SDS011;8825;48.086;16.426;2023-04-15T14:11:37;0.60;;;0.60;;
17414;SDS011;8825;48.086;16.426;2023-04-15T14:14:05;0.60;;;0.60;;
17414;SDS011;8825;48.086;16.426;2023-04-15T14:16:33;0.50;;;0.50;;
17414;SDS011;8825;48.086;16.426;2023-04-15T14:22:23;0.60;;;0.60;;
17414;SDS011;8825;48.086;16.426;2023-04-15T14:24:51;0.80;;;0.80;;
17414;SDS011;8825;48.086;16.426;2023-04-15T14:27:20;0.50;;;0.50;;
17414;SDS011;8825;48.086;16.426;2023-04-15T14:29:48;0.60;;;0.60;;
17414;SDS011;8825;48.086;16.426;2023-04-15T14:32:18;0.50;;;0.50;;
17414;SDS011;8825;48.086;16.426;2023-04-15T14:34:46;0.43;;;0.43;;
17414;SDS011;8825;48.086;16.426;2023-04-15T14:37:14;0.60;;;0.60;;
17414;SDS011;8825;48.086;16.426;2023-04-15T14:39:41;0.63;;;0.63;;
17414;SDS011;8825;48.086;16.426;2023-04-15T14:42:09;0.47;;;0.47;;
17414;SDS011;8825;48.086;16.426;2023-04-15T14:44:37;0.70;;;0.70;;
17414;SDS011;8825;48.086;16.426;2023-04-15T14:47:05;0.50;;;0.50;;
17414;SDS011;8825;48.086;16.426;2023-04-15T14:49:32;0.67;;;0.67;;
17414;SDS011;8825;48.086;16.426;2023-04-15T14:52:00;0.60;;;0.60;;
17414;SDS011;8825;48.086;16.426;2023-04-15T14:54:28;0.50;;;0.50;;
17414;SDS011;8825;48.086;16.426;2023-04-15T14:56:56;0.70;;;0.70;;
17414;SDS011;8825;48.086;16.426;2023-04-15T15:02:46;0.60;;;0.60;;
17414;SDS011;8825;48.086;16.426;2023-04-15T15:05:14;0.73;;;0.73;;
17414;SDS011;8825;48.086;16.426;2023-04-15T15:11:04;0.40;;;0.40;;
17414;SDS011;8825;48.086;16.426;2023-04-15T15:16:54;0.40;;;0.40;;
17414;SDS011;8825;48.086;16.426;2023-04-15T15:22:44;0.40;;;0.40;;
17414;SDS011;8825;48.086;16.426;2023-04-15T15:25:12;0.60;;;0.60;;
17414;SDS011;8825;48.086;16.426;2023-04-15T15:27:39;0.50;;;0.50;;
17414;SDS011;8825;48.086;16.426;2023-04-15T15:30:07;1.57;;;0.70;;
17414;SDS011;8825;48.086;16.426;2023-04-15T15:32:37;0.60;;;0.60;;
17414;SDS011;8825;48.086;16.426;2023-04-15T15:35:06;0.60;;;0.60;;
17414;SDS011;8825;48.086;16.426;2023-04-15T15:37:34;0.60;;;0.60;;
17414;SDS011;8825;48.086;16.426;2023-04-15T15:40:03;0.60;;;0.60;;
17414;SDS011;8825;48.086;16.426;2023-04-15T15:42:31;0.70;;;0.70;;
17414;SDS011;8825;48.086;16.426;2023-04-15T15:44:59;0.60;;;0.60;;
17414;SDS011;8825;48.086;16.426;2023-04-15T15:47:28;0.50;;;0.50;;
17414;SDS011;8825;48.086;16.426;2023-04-15T15:53:19;0.73;;;0.73;;
17414;SDS011;8825;48.086;16.426;2023-04-15T15:55:48;0.70;;;0.70;;
17414;SDS011;8825;48.086;16.426;2023-04-15T16:01:38;0.77;;;0.77;;
17414;SDS011;8825;48.086;16.426;2023-04-15T16:07:28;0.70;;;0.70;;
17414;SDS011;8825;48.086;16.426;2023-04-15T16:13:17;0.70;;;0.70;;
17414;SDS011;8825;48.086;16.426;2023-04-15T16:15:45;1.17;;;0.80;;
17414;SDS011;8825;48.086;16.426;2023-04-15T16:18:17;0.90;;;0.90;;
17414;SDS011;8825;48.086;16.426;2023-04-15T16:21:20;1.27;;;0.90;;
17414;SDS011;8825;48.086;16.426;2023-04-15T16:27:12;0.80;;;0.80;;
17414;SDS011;8825;48.086;16.426;2023-04-15T16:33:03;0.90;;;0.90;;
17414;SDS011;8825;48.086;16.426;2023-04-15T16:35:31;0.80;;;0.80;;
17414;SDS011;8825;48.086;16.426;2023-04-15T16:37:59;0.60;;;0.60;;
17414;SDS011;8825;48.086;16.426;2023-04-15T16:40:27;0.77;;;0.77;;
17414;SDS011;8825;48.086;16.426;2023-04-15T16:42:56;0.50;;;0.50;;
17414;SDS011;8825;48.086;16.426;2023-04-15T16:45:24;0.80;;;0.80;;
17414;SDS011;8825;48.086;16.426;2023-04-15T16:47:52;0.50;;;0.50;;
17414;SDS011;8825;48.086;16.426;2023-04-15T16:53:43;0.70;;;0.70;;
17414;SDS011;8825;48.086;16.426;2023-04-15T16:56:11;0.70;;;0.70;;
17414;SDS011;8825;48.086;16.426;2023-04-15T17:02:01;0.80;;;0.80;;
17414;SDS011;8825;48.086;16.426;2023-04-15T17:07:51;0.90;;;0.90;;
17414;SDS011;8825;48.086;16.426;2023-04-15T17:10:19;0.70;;;0.70;;
17414;SDS011;8825;48.086;16.426;2023-04-15T17:16:09;0.90;;;0.90;;
17414;SDS011;8825;48.086;16.426;2023-04-15T17:18:36;0.70;;;0.70;;
17414;SDS011;8825;48.086;16.426;2023-04-15T17:21:06;0.80;;;0.80;;
17414;SDS011;8825;48.086;16.426;2023-04-15T17:23:34;0.70;;;0.70;;
17414;SDS011;8825;48.086;16.426;2023-04-15T17:26:01;0.83;;;0.83;;
17414;SDS011;8825;48.086;16.426;2023-04-15T17:28:29;0.90;;;0.90;;
17414;SDS011;8825;48.086;16.426;2023-04-15T17:30:57;0.87;;;0.87;;
17414;SDS011;8825;48.086;16.426;2023-04-15T17:33:25;1.07;;;1.00;;
17414;SDS011;8825;48.086;16.426;2023-04-15T17:35:53;0.90;;;0.90;;
17414;SDS011;8825;48.086;16.426;2023-04-15T17:38:21;1.30;;;1.03;;
17414;SDS011;8825;48.086;16.426;2023-04-15T17:40:48;0.90;;;0.90;;
17414;SDS011;8825;48.086;16.426;2023-04-15T17:43:16;1.10;;;1.10;;
17414;SDS011;8825;48.086;16.426;2023-04-15T17:49:06;1.00;;;1.00;;
17414;SDS011;8825;48.086;16.426;2023-04-15T17:51:34;1.20;;;1.10;;
17414;SDS011;8825;48.086;16.426;2023-04-15T17:57:11;2.00;;;1.90;;
17414;SDS011;8825;48.086;16.426;2023-04-15T18:03:01;1.70;;;1.60;;
17414;SDS011;8825;48.086;16.426;2023-04-15T18:08:51;2.00;;;1.80;;
17414;SDS011;8825;48.086;16.426;2023-04-15T18:11:19;2.00;;;1.90;;
17414;SDS011;8825;48.086;16.426;2023-04-15T18:13:47;1.87;;;1.67;;
17414;SDS011;8825;48.086;16.426;2023-04-15T18:16:15;1.37;;;1.27;;
17414;SDS011;8825;48.086;16.426;2023-04-15T18:18:42;0.90;;;0.90;;
17414;SDS011;8825;48.086;16.426;2023-04-15T18:21:10;0.80;;;0.80;;
17414;SDS011;8825;48.086;16.426;2023-04-15T18:23:38;0.90;;;0.90;;
17414;SDS011;8825;48.086;16.426;2023-04-15T18:29:29;0.80;;;0.80;;
17414;SDS011;8825;48.086;16.426;2023-04-15T18:31:57;0.87;;;0.87;;
17414;SDS011;8825;48.086;16.426;2023-04-15T18:37:47;0.80;;;0.80;;
17414;SDS011;8825;48.086;16.426;2023-04-15T18:43:37;0.90;;;0.90;;
17414;SDS011;8825;48.086;16.426;2023-04-15T18:49:27;0.80;;;0.80;;
17414;SDS011;8825;48.086;16.426;2023-04-15T18:51:58;0.80;;;0.80;;
17414;SDS011;8825;48.086;16.426;2023-04-15T18:57:47;0.90;;;0.90;;
17414;SDS011;8825;48.086;16.426;2023-04-15T19:03:38;0.73;;;0.73;;
17414;SDS011;8825;48.086;16.426;2023-04-15T19:09:28;1.20;;;1.10;;
17414;SDS011;8825;48.086;16.426;2023-04-15T19:11:56;0.83;;;0.83;;
17414;SDS011;8825;48.086;16.426;2023-04-15T19:14:24;0.80;;;0.80;;
17414;SDS011;8825;48.086;16.426;2023-04-15T19:16:51;1.00;;;1.00;;
17414;SDS011;8825;48.086;16.426;2023-04-15T19:19:19;0.90;;;0.90;;
17414;SDS011;8825;48.086;16.426;2023-04-15T19:21:47;1.20;;;1.10;;
17414;SDS011;8825;48.086;16.426;2023-04-15T19:24:16;2.50;;;1.77;;
17414;SDS011;8825;48.086;16.426;2023-04-15T19:26:47;2.10;;;1.90;;
17414;SDS011;8825;48.086;16.426;2023-04-15T19:29:16;1.80;;;1.70;;
17414;SDS011;8825;48.086;16.426;2023-04-15T19:31:45;1.93;;;1.83;;
17414;SDS011;8825;48.086;16.426;2023-04-15T19:34:16;2.93;;;2.73;;
17414;SDS011;8825;48.086;16.426;2023-04-15T19:36:45;2.80;;;2.30;;
17414;SDS011;8825;48.086;16.426;2023-04-15T19:39:17;3.20;;;2.90;;
17414;SDS011;8825;48.086;16.426;2023-04-15T19:41:48;6.17;;;5.23;;
17414;SDS011;8825;48.086;16.426;2023-04-15T19:44:20;8.60;;;7.47;;
17414;SDS011;8825;48.086;16.426;2023-04-15T19:46:51;9.40;;;8.40;;
17414;SDS011;8825;48.086;16.426;2023-04-15T19:49:21;10.80;;;9.60;;
17414;SDS011;8825;48.086;16.426;2023-04-15T19:51:55;8.80;;;7.90;;
17414;SDS011;8825;48.086;16.426;2023-04-15T19:54:22;8.23;;;7.33;;
17414;SDS011;8825;48.086;16.426;2023-04-15T19:56:55;5.83;;;5.23;;
17414;SDS011;8825;48.086;16.426;2023-04-15T19:59:25;5.43;;;4.50;;
17414;SDS011;8825;48.086;16.426;2023-04-15T20:01:56;4.80;;;4.40;;
17414;SDS011;8825;48.086;16.426;2023-04-15T20:04:25;4.90;;;4.40;;
17414;SDS011;8825;48.086;16.426;2023-04-15T20:06:54;5.33;;;4.83;;
17414;SDS011;8825;48.086;16.426;2023-04-15T20:09:27;4.40;;;4.00;;
17414;SDS011;8825;48.086;16.426;2023-04-15T20:15:21;4.00;;;3.70;;
17414;SDS011;8825;48.086;16.426;2023-04-15T20:21:15;4.30;;;3.43;;
17414;SDS011;8825;48.086;16.426;2023-04-15T20:23:45;3.30;;;3.00;;
17414;SDS011;8825;48.086;16.426;2023-04-15T20:29:37;3.73;;;3.43;;
17414;SDS011;8825;48.086;16.426;2023-04-15T20:32:08;5.27;;;4.87;;
17414;SDS011;8825;48.086;16.426;2023-04-15T20:34:40;5.20;;;4.73;;
17414;SDS011;8825;48.086;16.426;2023-04-15T20:37:09;5.03;;;4.63;;
17414;SDS011;8825;48.086;16.426;2023-04-15T20:39:38;6.93;;;6.23;;
17414;SDS011;8825;48.086;16.426;2023-04-15T20:42:08;6.93;;;6.23;;
17414;SDS011;8825;48.086;16.426;2023-04-15T20:44:36;9.37;;;7.53;;
17414;SDS011;8825;48.086;16.426;2023-04-15T20:47:07;10.43;;;8.53;;